| time (UTC) | temp F | wind direction | speed knots | gust knots | rain 1hr in | rain 24hr in | rain mn in | humidity % | barometer mb |
| 20260502203704 | 67 | 241 | 8.7 | 14.8 | 0.00 | 0.00 | 0.00 | 32 | 1011.8 |
| 20260502202632 | 66 | 216 | 11.3 | 19.1 | 0.00 | 0.00 | 0.00 | 33 | 1012.1 |
| 20260502201600 | 65 | 242 | 7.8 | 14.8 | 0.00 | 0.00 | 0.00 | 34 | 1012.1 |
| 20260502200559 | 65 | 245 | 7.0 | 17.4 | 0.00 | 0.00 | 0.00 | 34 | 1012.4 |
| 20260502195558 | 65 | 236 | 6.1 | 17.4 | 0.00 | 0.00 | 0.00 | 35 | 1012.8 |
| 20260502194557 | 64 | 239 | 5.2 | 16.5 | 0.00 | 0.00 | 0.00 | 34 | 1013.0 |
| 20260502193525 | 64 | 206 | 5.2 | 14.8 | 0.00 | 0.00 | 0.00 | 37 | 1013.0 |
| 20260502192524 | 63 | 235 | 10.4 | 16.5 | 0.00 | 0.00 | 0.00 | 34 | 1013.3 |
| 20260502191524 | 63 | 231 | 10.4 | 22.6 | 0.00 | 0.00 | 0.00 | 34 | 1013.3 |
| 20260502190522 | 63 | 204 | 9.6 | 14.8 | 0.00 | 0.00 | 0.00 | 36 | 1013.6 |
| 20260502185522 | 62 | 233 | 7.0 | 14.8 | 0.00 | 0.00 | 0.00 | 35 | 1014.0 |
| 20260502184521 | 62 | 219 | 9.6 | 14.8 | 0.00 | 0.00 | 0.00 | 35 | 1014.0 |
| 20260502183520 | 61 | 210 | 9.6 | 17.4 | 0.00 | 0.00 | 0.00 | 35 | 1014.3 |
| 20260502182417 | 61 | 213 | 5.2 | 20.0 | 0.00 | 0.00 | 0.00 | 35 | 1014.5 |
| 20260502181416 | 61 | 210 | 10.4 | 17.4 | 0.00 | 0.00 | 0.00 | 37 | 1014.5 |
| 20260502180414 | 60 | 227 | 5.2 | 13.9 | 0.00 | 0.00 | 0.00 | 38 | 1014.8 |
| 20260502170408 | 57 | 207 | 5.2 | 16.5 | 0.00 | 0.00 | 0.00 | 38 | 1015.7 |
| 20260502163406 | 56 | 225 | 7.0 | 14.8 | 0.00 | 0.00 | 0.00 | 41 | 1016.0 |
| 20260502162405 | 56 | 262 | 5.2 | 12.2 | 0.00 | 0.00 | 0.00 | 42 | 1016.4 |
| 20260502161404 | 55 | 248 | 5.2 | 14.8 | 0.00 | 0.00 | 0.00 | 40 | 1016.4 |
| 20260502160332 | 55 | 255 | 5.2 | 14.8 | 0.00 | 0.00 | 0.00 | 40 | 1016.4 |
| 20260502152258 | 53 | 234 | 7.0 | 14.8 | 0.00 | 0.00 | 0.00 | 45 | 1017.1 |
| 20260502151257 | 53 | 245 | 9.6 | 14.8 | 0.00 | 0.00 | 0.00 | 45 | 1017.1 |
| 20260502150255 | 52 | 225 | 7.8 | 12.2 | 0.00 | 0.00 | 0.00 | 48 | 1017.0 |
| 20260502140116 | 49 | 260 | 2.6 | 13.9 | 0.00 | 0.00 | 0.00 | 56 | 1017.3 |
| 20260502122955 | 41 | 242 | 1.7 | 4.3 | 0.00 | 0.00 | 0.00 | 70 | 1017.7 |
| 20260502121923 | 40 | 244 | 1.7 | 5.2 | 0.00 | 0.00 | 0.00 | 70 | 1017.7 |
| 20260502120922 | 39 | 244 | 0.9 | 4.3 | 0.00 | 0.00 | 0.00 | 71 | 1017.3 |
| 20260502115921 | 39 | 243 | 0.0 | 4.3 | 0.00 | 0.00 | 0.00 | 71 | 1017.3 |
| 20260502114920 | 38 | 244 | 0.9 | 2.6 | 0.00 | 0.00 | 0.00 | 71 | 1017.3 |
| 20260502113919 | 37 | 243 | 1.7 | 5.2 | 0.00 | 0.00 | 0.00 | 71 | 1017.2 |
| 20260502112847 | 37 | 244 | 0.0 | 0.0 | 0.00 | 0.00 | 0.00 | 70 | 1017.2 |
| 20260502111846 | 37 | 244 | 0.9 | 2.6 | 0.00 | 0.00 | 0.00 | 69 | 1017.2 |
| 20260502110845 | 37 | 245 | 0.0 | 1.7 | 0.00 | 0.00 | 0.00 | 68 | 1017.2 |
| 20260502105844 | 38 | 245 | 0.0 | 1.7 | 0.00 | 0.00 | 0.00 | 67 | 1017.2 |
| 20260502104813 | 38 | 245 | 0.9 | 2.6 | 0.00 | 0.00 | 0.00 | 67 | 1017.2 |
| 20260502103812 | 38 | 245 | 0.0 | 1.7 | 0.00 | 0.00 | 0.00 | 67 | 1017.2 |
| 20260502102811 | 38 | 245 | 0.9 | 1.7 | 0.00 | 0.00 | 0.00 | 67 | 1017.2 |
| 20260502101810 | 38 | 245 | 0.0 | 1.7 | 0.00 | 0.00 | 0.00 | 66 | 1017.3 |
| 20260502100809 | 39 | 245 | 0.0 | 2.6 | 0.00 | 0.00 | 0.00 | 65 | 1017.3 |
| 20260502090702 | 40 | 247 | 0.9 | 4.3 | 0.00 | 0.00 | 0.00 | 62 | 1017.3 |
| 20260502071520 | 39 | 265 | 0.0 | 1.7 | 0.00 | 0.00 | 0.00 | 63 | 1017.6 |
| 20260502070519 | 39 | 265 | 0.0 | 1.7 | 0.00 | 0.00 | 0.00 | 63 | 1017.5 |
| 20260502065518 | 40 | 265 | 0.0 | 2.6 | 0.00 | 0.00 | 0.00 | 62 | 1017.6 |
| 20260502064517 | 40 | 265 | 0.0 | 1.7 | 0.00 | 0.00 | 0.00 | 62 | 1017.5 |
| 20260502063414 | 39 | 265 | 0.0 | 2.6 | 0.00 | 0.00 | 0.00 | 63 | 1017.5 |
| 20260502062414 | 38 | 285 | 0.9 | 4.3 | 0.00 | 0.00 | 0.00 | 65 | 1017.5 |
| 20260502061413 | 37 | 327 | 0.0 | 1.7 | 0.00 | 0.00 | 0.00 | 67 | 1017.4 |
| 20260502060400 | 36 | 327 | 0.0 | 0.0 | 0.00 | 0.00 | 0.00 | 69 | 1017.4 |
| 20260502055358 | 36 | 327 | 0.0 | 0.0 | 0.00 | 0.00 | 0.00 | 69 | 1017.4 |
| 20260502054357 | 37 | 327 | 0.0 | 0.0 | 0.00 | 0.00 | 0.00 | 68 | 1017.5 |
| 20260502053356 | 37 | 327 | 0.0 | 0.0 | 0.00 | 0.00 | 0.00 | 67 | 1017.4 |
| 20260502052355 | 37 | 327 | 0.0 | 0.0 | 0.00 | 0.00 | 0.00 | 67 | 1017.5 |
| 20260502051323 | 37 | 327 | 0.0 | 0.0 | 0.00 | 0.00 | 0.00 | 67 | 1017.5 |
| 20260502050322 | 37 | 327 | 0.0 | 0.0 | 0.00 | 0.00 | 0.00 | 68 | 1017.4 |
| 20260502045321 | 37 | 327 | 0.0 | 0.0 | 0.00 | 0.00 | 0.00 | 67 | 1017.4 |
| 20260502044321 | 37 | 327 | 0.0 | 0.0 | 0.00 | 0.00 | 0.00 | 66 | 1017.4 |
| 20260502043320 | 38 | 327 | 0.0 | 0.0 | 0.00 | 0.00 | 0.00 | 66 | 1017.4 |
| 20260502042319 | 38 | 327 | 0.0 | 0.0 | 0.00 | 0.00 | 0.00 | 64 | 1017.4 |
| 20260502041318 | 39 | 327 | 0.0 | 0.0 | 0.00 | 0.00 | 0.00 | 63 | 1017.4 |
| 20260502040318 | 39 | 327 | 0.0 | 0.0 | 0.00 | 0.00 | 0.00 | 62 | 1017.1 |
| 20260502035317 | 39 | 327 | 0.0 | 0.0 | 0.00 | 0.00 | 0.00 | 61 | 1017.1 |
| 20260502034245 | 40 | 327 | 0.0 | 0.0 | 0.00 | 0.00 | 0.00 | 59 | 1017.4 |
| 20260502033213 | 41 | 327 | 0.0 | 0.0 | 0.00 | 0.00 | 0.00 | 57 | 1017.5 |
| 20260502032212 | 41 | 327 | 0.0 | 0.0 | 0.00 | 0.00 | 0.00 | 57 | 1017.5 |
| 20260502031212 | 41 | 327 | 0.0 | 0.0 | 0.00 | 0.00 | 0.00 | 57 | 1017.5 |
| 20260502030211 | 41 | 327 | 0.0 | 0.0 | 0.00 | 0.00 | 0.00 | 59 | 1017.5 |
| 20260502025210 | 41 | 327 | 0.0 | 0.0 | 0.00 | 0.00 | 0.00 | 58 | 1017.4 |
| 20260502024209 | 41 | 327 | 0.0 | 0.0 | 0.00 | 0.00 | 0.00 | 57 | 1017.4 |
| 20260502023208 | 42 | 327 | 0.0 | 0.0 | 0.00 | 0.00 | 0.00 | 58 | 1017.5 |
| 20260502022207 | 42 | 327 | 0.0 | 1.7 | 0.00 | 0.00 | 0.00 | 56 | 1017.5 |
| 20260502021206 | 43 | 327 | 0.0 | 0.0 | 0.00 | 0.00 | 0.00 | 54 | 1017.1 |
| 20260502020205 | 44 | 327 | 0.0 | 0.0 | 0.00 | 0.00 | 0.00 | 52 | 1017.2 |
| 20260502015205 | 45 | 327 | 0.0 | 0.0 | 0.00 | 0.00 | 0.00 | 50 | 1017.2 |
| 20260502014133 | 46 | 327 | 0.0 | 0.0 | 0.00 | 0.00 | 0.00 | 47 | 1016.9 |
| 20260502013132 | 47 | 327 | 0.0 | 0.0 | 0.00 | 0.00 | 0.00 | 45 | 1017.0 |
| 20260502012131 | 49 | 327 | 0.0 | 0.0 | 0.00 | 0.00 | 0.00 | 42 | 1017.0 |
| 20260502011130 | 50 | 327 | 0.0 | 0.0 | 0.00 | 0.00 | 0.00 | 38 | 1017.0 |
| 20260502010130 | 50 | 327 | 0.0 | 2.6 | 0.00 | 0.00 | 0.00 | 37 | 1017.0 |
| 20260502005057 | 51 | 327 | 0.9 | 4.3 | 0.00 | 0.00 | 0.00 | 37 | 1017.0 |
| 20260502004057 | 51 | 299 | 2.6 | 7.0 | 0.00 | 0.00 | 0.00 | 36 | 1017.0 |
| 20260502003056 | 52 | 318 | 1.7 | 9.6 | 0.00 | 0.00 | 0.00 | 35 | 1017.0 |
| 20260502002055 | 53 | 342 | 2.6 | 7.0 | 0.00 | 0.00 | 0.00 | 35 | 1017.0 |
| 20260502001054 | 54 | 313 | 1.7 | 9.6 | 0.00 | 0.00 | 0.00 | 34 | 1017.0 |
| 20260502000053 | 54 | 330 | 0.9 | 7.0 | 0.00 | 0.00 | 0.00 | 34 | 1016.7 |
| 20260501235052 | 54 | 301 | 3.5 | 5.2 | 0.00 | 0.00 | 0.00 | 35 | 1017.0 |
| 20260501234051 | 53 | 305 | 1.7 | 5.2 | 0.00 | 0.00 | 0.00 | 35 | 1017.0 |
| 20260501233050 | 52 | 355 | 1.7 | 7.0 | 0.00 | 0.00 | 0.00 | 39 | 1016.9 |
| 20260501232049 | 52 | 320 | 2.6 | 9.6 | 0.00 | 0.00 | 0.00 | 37 | 1016.9 |
| 20260501231048 | 52 | 345 | 1.7 | 5.2 | 0.00 | 0.00 | 0.00 | 37 | 1016.9 |
| 20260501230047 | 52 | 5 | 0.9 | 5.2 | 0.00 | 0.00 | 0.00 | 36 | 1016.9 |
| 20260501225047 | 51 | 351 | 1.7 | 5.2 | 0.00 | 0.00 | 0.00 | 38 | 1016.9 |
| 20260501224046 | 52 | 20 | 2.6 | 5.2 | 0.00 | 0.00 | 0.00 | 37 | 1017.0 |
| 20260501223045 | 52 | 346 | 2.6 | 7.8 | 0.00 | 0.00 | 0.00 | 36 | 1017.0 |
| 20260501222013 | 53 | 328 | 2.6 | 10.4 | 0.00 | 0.00 | 0.00 | 35 | 1017.0 |
| 20260501221012 | 55 | 45 | 3.5 | 10.4 | 0.00 | 0.00 | 0.00 | 35 | 1017.1 |
| 20260501220011 | 54 | 21 | 2.6 | 7.8 | 0.00 | 0.00 | 0.00 | 37 | 1017.0 |
| 20260501215011 | 51 | 86 | 5.2 | 9.6 | 0.00 | 0.00 | 0.00 | 39 | 1016.9 |
| 20260501213939 | 51 | 33 | 3.5 | 7.0 | 0.00 | 0.00 | 0.00 | 39 | 1016.9 |
| 20260501212938 | 52 | 37 | 2.6 | 7.0 | 0.00 | 0.00 | 0.00 | 37 | 1016.9 |
| 20260501211937 | 51 | 22 | 1.7 | 7.0 | 0.00 | 0.00 | 0.00 | 38 | 1016.9 |
| 20260501210936 | 52 | 23 | 4.3 | 9.6 | 0.00 | 0.00 | 0.00 | 37 | 1017.3 |
| 20260501205936 | 53 | 321 | 4.3 | 10.4 | 0.00 | 0.00 | 0.00 | 38 | 1017.3 |
| 20260501204935 | 53 | 287 | 3.5 | 13.9 | 0.00 | 0.00 | 0.00 | 36 | 1017.3 |